sensor_id;sensor_type;location;lat;lon;timestamp;P1;durP1;ratioP1;P2;durP2;ratioP2
81124;SDS011;71444;52.114;5.424;2023-08-12T00:02:19;9.93;;;4.10;;
81124;SDS011;71444;52.114;5.424;2023-08-12T00:04:59;8.23;;;4.18;;
81124;SDS011;71444;52.114;5.424;2023-08-12T00:07:39;10.88;;;4.13;;
81124;SDS011;71444;52.114;5.424;2023-08-12T00:10:19;10.75;;;4.13;;
81124;SDS011;71444;52.114;5.424;2023-08-12T00:12:59;8.02;;;4.05;;
81124;SDS011;71444;52.114;5.424;2023-08-12T00:15:38;8.00;;;4.32;;
81124;SDS011;71444;52.114;5.424;2023-08-12T00:18:18;9.05;;;4.07;;
81124;SDS011;71444;52.114;5.424;2023-08-12T00:20:58;12.93;;;4.78;;
81124;SDS011;71444;52.114;5.424;2023-08-12T00:23:41;9.73;;;4.30;;
81124;SDS011;71444;52.114;5.424;2023-08-12T00:26:22;11.73;;;4.28;;
81124;SDS011;71444;52.114;5.424;2023-08-12T00:29:05;7.88;;;4.15;;
81124;SDS011;71444;52.114;5.424;2023-08-12T00:31:45;11.55;;;4.55;;
81124;SDS011;71444;52.114;5.424;2023-08-12T00:34:25;11.82;;;4.40;;
81124;SDS011;71444;52.114;5.424;2023-08-12T00:37:12;9.50;;;4.32;;
81124;SDS011;71444;52.114;5.424;2023-08-12T00:39:51;7.90;;;4.35;;
81124;SDS011;71444;52.114;5.424;2023-08-12T00:42:31;10.98;;;4.32;;
81124;SDS011;71444;52.114;5.424;2023-08-12T00:45:14;12.07;;;5.00;;
81124;SDS011;71444;52.114;5.424;2023-08-12T00:47:54;9.95;;;4.55;;
81124;SDS011;71444;52.114;5.424;2023-08-12T00:50:34;11.55;;;4.72;;
81124;SDS011;71444;52.114;5.424;2023-08-12T00:53:15;13.68;;;4.43;;
81124;SDS011;71444;52.114;5.424;2023-08-12T00:55:55;13.02;;;5.03;;
81124;SDS011;71444;52.114;5.424;2023-08-12T00:58:35;14.55;;;5.18;;
81124;SDS011;71444;52.114;5.424;2023-08-12T01:01:15;13.23;;;5.35;;
81124;SDS011;71444;52.114;5.424;2023-08-12T01:03:55;12.82;;;5.25;;
81124;SDS011;71444;52.114;5.424;2023-08-12T01:06:36;9.68;;;4.43;;
81124;SDS011;71444;52.114;5.424;2023-08-12T01:09:16;10.52;;;5.35;;
81124;SDS011;71444;52.114;5.424;2023-08-12T01:14:56;11.35;;;5.35;;
81124;SDS011;71444;52.114;5.424;2023-08-12T01:17:53;12.63;;;5.57;;
81124;SDS011;71444;52.114;5.424;2023-08-12T01:20:35;13.68;;;5.97;;
81124;SDS011;71444;52.114;5.424;2023-08-12T01:23:16;14.32;;;5.85;;
81124;SDS011;71444;52.114;5.424;2023-08-12T01:25:56;13.98;;;6.50;;
81124;SDS011;71444;52.114;5.424;2023-08-12T01:28:36;15.15;;;6.60;;
81124;SDS011;71444;52.114;5.424;2023-08-12T01:31:18;11.57;;;5.47;;
81124;SDS011;71444;52.114;5.424;2023-08-12T01:37:29;10.38;;;5.43;;
81124;SDS011;71444;52.114;5.424;2023-08-12T01:40:12;11.93;;;4.93;;
81124;SDS011;71444;52.114;5.424;2023-08-12T01:42:55;13.27;;;5.53;;
81124;SDS011;71444;52.114;5.424;2023-08-12T01:45:35;11.00;;;5.57;;
81124;SDS011;71444;52.114;5.424;2023-08-12T01:48:15;15.05;;;5.75;;
81124;SDS011;71444;52.114;5.424;2023-08-12T01:51:00;13.80;;;5.88;;
81124;SDS011;71444;52.114;5.424;2023-08-12T01:53:40;13.60;;;6.15;;
81124;SDS011;71444;52.114;5.424;2023-08-12T01:56:20;14.30;;;7.13;;
81124;SDS011;71444;52.114;5.424;2023-08-12T01:59:02;15.60;;;6.65;;
81124;SDS011;71444;52.114;5.424;2023-08-12T02:01:42;14.00;;;5.63;;
81124;SDS011;71444;52.114;5.424;2023-08-12T02:04:22;17.27;;;7.07;;
81124;SDS011;71444;52.114;5.424;2023-08-12T02:07:02;12.57;;;6.00;;
81124;SDS011;71444;52.114;5.424;2023-08-12T02:09:42;14.23;;;6.70;;
81124;SDS011;71444;52.114;5.424;2023-08-12T02:12:21;13.98;;;6.18;;
81124;SDS011;71444;52.114;5.424;2023-08-12T02:15:01;14.20;;;6.65;;
81124;SDS011;71444;52.114;5.424;2023-08-12T02:17:41;15.07;;;6.45;;
81124;SDS011;71444;52.114;5.424;2023-08-12T02:20:20;16.60;;;6.47;;
81124;SDS011;71444;52.114;5.424;2023-08-12T02:23:00;14.65;;;6.57;;
81124;SDS011;71444;52.114;5.424;2023-08-12T02:25:40;15.80;;;7.55;;
81124;SDS011;71444;52.114;5.424;2023-08-12T02:28:19;15.73;;;7.45;;
81124;SDS011;71444;52.114;5.424;2023-08-12T02:30:59;16.67;;;7.38;;
81124;SDS011;71444;52.114;5.424;2023-08-12T02:33:39;16.75;;;7.45;;
81124;SDS011;71444;52.114;5.424;2023-08-12T02:36:18;16.30;;;7.35;;
81124;SDS011;71444;52.114;5.424;2023-08-12T02:38:58;14.93;;;7.50;;
81124;SDS011;71444;52.114;5.424;2023-08-12T02:41:38;15.82;;;7.53;;
81124;SDS011;71444;52.114;5.424;2023-08-12T02:44:17;18.33;;;7.25;;
81124;SDS011;71444;52.114;5.424;2023-08-12T02:46:57;17.50;;;7.63;;
81124;SDS011;71444;52.114;5.424;2023-08-12T02:49:37;16.90;;;7.32;;
81124;SDS011;71444;52.114;5.424;2023-08-12T02:52:16;17.02;;;7.97;;
81124;SDS011;71444;52.114;5.424;2023-08-12T02:54:56;16.05;;;7.90;;
81124;SDS011;71444;52.114;5.424;2023-08-12T02:57:36;20.30;;;8.38;;
81124;SDS011;71444;52.114;5.424;2023-08-12T03:00:16;17.45;;;7.82;;
81124;SDS011;71444;52.114;5.424;2023-08-12T03:02:55;19.20;;;8.18;;
81124;SDS011;71444;52.114;5.424;2023-08-12T03:05:35;17.58;;;8.00;;
81124;SDS011;71444;52.114;5.424;2023-08-12T03:08:16;20.67;;;8.82;;
81124;SDS011;71444;52.114;5.424;2023-08-12T03:11:00;20.10;;;8.80;;
81124;SDS011;71444;52.114;5.424;2023-08-12T03:13:40;17.42;;;8.13;;
81124;SDS011;71444;52.114;5.424;2023-08-12T03:16:20;18.80;;;9.07;;
81124;SDS011;71444;52.114;5.424;2023-08-12T03:19:00;18.05;;;8.65;;
81124;SDS011;71444;52.114;5.424;2023-08-12T03:21:43;18.85;;;9.13;;
81124;SDS011;71444;52.114;5.424;2023-08-12T03:24:26;16.35;;;8.38;;
81124;SDS011;71444;52.114;5.424;2023-08-12T03:27:06;19.38;;;8.80;;
81124;SDS011;71444;52.114;5.424;2023-08-12T03:29:45;17.85;;;9.65;;
81124;SDS011;71444;52.114;5.424;2023-08-12T03:32:25;19.33;;;8.90;;
81124;SDS011;71444;52.114;5.424;2023-08-12T03:35:05;19.15;;;8.40;;
81124;SDS011;71444;52.114;5.424;2023-08-12T03:37:45;20.45;;;9.48;;
81124;SDS011;71444;52.114;5.424;2023-08-12T03:40:25;18.88;;;9.05;;
81124;SDS011;71444;52.114;5.424;2023-08-12T03:43:04;18.48;;;9.02;;
81124;SDS011;71444;52.114;5.424;2023-08-12T03:45:44;17.73;;;9.27;;
81124;SDS011;71444;52.114;5.424;2023-08-12T03:48:24;16.70;;;8.85;;
81124;SDS011;71444;52.114;5.424;2023-08-12T03:51:04;18.73;;;8.32;;
81124;SDS011;71444;52.114;5.424;2023-08-12T03:53:46;16.85;;;9.30;;
81124;SDS011;71444;52.114;5.424;2023-08-12T03:56:26;15.77;;;8.35;;
81124;SDS011;71444;52.114;5.424;2023-08-12T03:59:06;19.02;;;8.90;;
81124;SDS011;71444;52.114;5.424;2023-08-12T04:01:45;18.42;;;8.32;;
81124;SDS011;71444;52.114;5.424;2023-08-12T04:04:25;19.88;;;8.75;;
81124;SDS011;71444;52.114;5.424;2023-08-12T04:07:05;18.85;;;9.43;;
81124;SDS011;71444;52.114;5.424;2023-08-12T04:09:44;20.38;;;9.48;;
81124;SDS011;71444;52.114;5.424;2023-08-12T04:12:24;17.67;;;8.98;;
81124;SDS011;71444;52.114;5.424;2023-08-12T04:15:04;19.58;;;9.25;;
81124;SDS011;71444;52.114;5.424;2023-08-12T04:17:44;19.05;;;9.20;;
81124;SDS011;71444;52.114;5.424;2023-08-12T04:20:24;17.98;;;9.55;;
81124;SDS011;71444;52.114;5.424;2023-08-12T04:23:04;17.80;;;9.13;;
81124;SDS011;71444;52.114;5.424;2023-08-12T04:25:44;21.20;;;10.40;;
81124;SDS011;71444;52.114;5.424;2023-08-12T04:28:27;23.10;;;10.52;;
81124;SDS011;71444;52.114;5.424;2023-08-12T04:31:06;21.80;;;10.43;;
81124;SDS011;71444;52.114;5.424;2023-08-12T04:33:50;19.80;;;10.93;;
81124;SDS011;71444;52.114;5.424;2023-08-12T04:36:31;22.75;;;10.88;;
81124;SDS011;71444;52.114;5.424;2023-08-12T04:39:11;20.90;;;10.15;;
81124;SDS011;71444;52.114;5.424;2023-08-12T04:41:51;21.73;;;10.48;;
81124;SDS011;71444;52.114;5.424;2023-08-12T04:44:30;19.80;;;10.65;;
81124;SDS011;71444;52.114;5.424;2023-08-12T04:47:10;21.10;;;10.70;;
81124;SDS011;71444;52.114;5.424;2023-08-12T04:49:51;18.33;;;10.32;;
81124;SDS011;71444;52.114;5.424;2023-08-12T04:52:31;25.08;;;11.13;;
81124;SDS011;71444;52.114;5.424;2023-08-12T04:55:11;21.25;;;11.15;;
81124;SDS011;71444;52.114;5.424;2023-08-12T04:57:51;23.05;;;10.77;;
81124;SDS011;71444;52.114;5.424;2023-08-12T05:00:35;21.33;;;10.80;;
81124;SDS011;71444;52.114;5.424;2023-08-12T05:03:15;19.65;;;10.27;;
81124;SDS011;71444;52.114;5.424;2023-08-12T05:05:54;18.27;;;9.70;;
81124;SDS011;71444;52.114;5.424;2023-08-12T05:08:34;20.90;;;9.98;;
81124;SDS011;71444;52.114;5.424;2023-08-12T05:11:14;18.50;;;9.55;;
81124;SDS011;71444;52.114;5.424;2023-08-12T05:13:53;17.90;;;9.60;;
81124;SDS011;71444;52.114;5.424;2023-08-12T05:16:33;20.15;;;9.75;;
81124;SDS011;71444;52.114;5.424;2023-08-12T05:19:13;17.88;;;8.57;;
81124;SDS011;71444;52.114;5.424;2023-08-12T05:21:52;23.70;;;9.90;;
81124;SDS011;71444;52.114;5.424;2023-08-12T05:24:32;16.85;;;7.72;;
81124;SDS011;71444;52.114;5.424;2023-08-12T05:27:21;16.77;;;8.02;;
81124;SDS011;71444;52.114;5.424;2023-08-12T05:30:01;15.15;;;8.07;;
81124;SDS011;71444;52.114;5.424;2023-08-12T05:32:41;17.00;;;8.45;;
81124;SDS011;71444;52.114;5.424;2023-08-12T05:35:33;16.75;;;8.10;;
81124;SDS011;71444;52.114;5.424;2023-08-12T05:38:14;18.50;;;8.30;;
81124;SDS011;71444;52.114;5.424;2023-08-12T05:40:57;16.85;;;7.63;;
81124;SDS011;71444;52.114;5.424;2023-08-12T05:43:36;18.55;;;8.98;;
81124;SDS011;71444;52.114;5.424;2023-08-12T05:46:16;16.13;;;7.88;;
81124;SDS011;71444;52.114;5.424;2023-08-12T05:48:56;16.73;;;8.32;;
81124;SDS011;71444;52.114;5.424;2023-08-12T05:51:36;17.75;;;8.75;;
81124;SDS011;71444;52.114;5.424;2023-08-12T05:54:21;23.80;;;9.82;;
81124;SDS011;71444;52.114;5.424;2023-08-12T05:57:00;20.30;;;10.00;;
81124;SDS011;71444;52.114;5.424;2023-08-12T05:59:40;20.42;;;9.68;;
81124;SDS011;71444;52.114;5.424;2023-08-12T06:02:24;19.85;;;8.85;;
81124;SDS011;71444;52.114;5.424;2023-08-12T06:05:04;17.58;;;8.57;;
81124;SDS011;71444;52.114;5.424;2023-08-12T06:07:47;18.08;;;9.40;;
81124;SDS011;71444;52.114;5.424;2023-08-12T06:10:27;19.35;;;8.90;;
81124;SDS011;71444;52.114;5.424;2023-08-12T06:13:07;18.35;;;8.20;;
81124;SDS011;71444;52.114;5.424;2023-08-12T06:15:47;19.10;;;9.07;;
81124;SDS011;71444;52.114;5.424;2023-08-12T06:18:26;17.60;;;8.55;;
81124;SDS011;71444;52.114;5.424;2023-08-12T06:21:06;16.00;;;7.95;;
81124;SDS011;71444;52.114;5.424;2023-08-12T06:23:46;14.32;;;7.00;;
81124;SDS011;71444;52.114;5.424;2023-08-12T06:26:25;14.50;;;7.28;;
81124;SDS011;71444;52.114;5.424;2023-08-12T06:29:05;13.38;;;6.65;;
81124;SDS011;71444;52.114;5.424;2023-08-12T06:31:45;14.43;;;6.97;;
81124;SDS011;71444;52.114;5.424;2023-08-12T06:34:25;13.65;;;6.03;;
81124;SDS011;71444;52.114;5.424;2023-08-12T06:37:05;12.95;;;5.43;;
81124;SDS011;71444;52.114;5.424;2023-08-12T06:39:45;12.88;;;6.07;;
81124;SDS011;71444;52.114;5.424;2023-08-12T06:42:27;12.13;;;5.70;;
81124;SDS011;71444;52.114;5.424;2023-08-12T06:45:07;11.65;;;6.13;;
81124;SDS011;71444;52.114;5.424;2023-08-12T06:47:48;12.93;;;6.30;;
81124;SDS011;71444;52.114;5.424;2023-08-12T06:50:28;13.18;;;5.68;;
81124;SDS011;71444;52.114;5.424;2023-08-12T06:53:08;11.52;;;5.60;;
81124;SDS011;71444;52.114;5.424;2023-08-12T06:55:48;9.93;;;4.78;;
81124;SDS011;71444;52.114;5.424;2023-08-12T06:58:28;12.05;;;5.13;;
81124;SDS011;71444;52.114;5.424;2023-08-12T07:01:07;8.82;;;4.90;;
81124;SDS011;71444;52.114;5.424;2023-08-12T07:03:47;10.57;;;5.30;;
81124;SDS011;71444;52.114;5.424;2023-08-12T07:06:27;10.77;;;5.10;;
81124;SDS011;71444;52.114;5.424;2023-08-12T07:09:06;9.85;;;5.43;;
81124;SDS011;71444;52.114;5.424;2023-08-12T07:11:46;10.32;;;5.40;;
81124;SDS011;71444;52.114;5.424;2023-08-12T07:14:34;10.40;;;5.20;;
81124;SDS011;71444;52.114;5.424;2023-08-12T07:17:18;8.63;;;4.55;;
81124;SDS011;71444;52.114;5.424;2023-08-12T07:19:58;10.60;;;4.60;;
81124;SDS011;71444;52.114;5.424;2023-08-12T07:22:38;10.25;;;5.13;;
81124;SDS011;71444;52.114;5.424;2023-08-12T07:25:18;10.00;;;4.95;;
81124;SDS011;71444;52.114;5.424;2023-08-12T07:27:57;9.30;;;5.18;;
81124;SDS011;71444;52.114;5.424;2023-08-12T07:30:37;9.85;;;4.97;;
81124;SDS011;71444;52.114;5.424;2023-08-12T07:33:17;8.30;;;4.55;;
81124;SDS011;71444;52.114;5.424;2023-08-12T07:35:59;9.15;;;3.75;;
81124;SDS011;71444;52.114;5.424;2023-08-12T07:38:49;7.10;;;3.80;;
81124;SDS011;71444;52.114;5.424;2023-08-12T07:41:29;6.82;;;3.58;;
81124;SDS011;71444;52.114;5.424;2023-08-12T07:44:09;7.53;;;3.65;;
81124;SDS011;71444;52.114;5.424;2023-08-12T07:46:48;7.45;;;3.80;;
81124;SDS011;71444;52.114;5.424;2023-08-12T07:49:28;7.88;;;3.70;;
81124;SDS011;71444;52.114;5.424;2023-08-12T07:52:08;6.60;;;3.58;;
81124;SDS011;71444;52.114;5.424;2023-08-12T07:54:48;8.63;;;4.05;;
81124;SDS011;71444;52.114;5.424;2023-08-12T07:57:27;7.47;;;3.47;;
81124;SDS011;71444;52.114;5.424;2023-08-12T08:00:07;7.53;;;3.47;;
81124;SDS011;71444;52.114;5.424;2023-08-12T08:02:48;7.63;;;3.85;;
81124;SDS011;71444;52.114;5.424;2023-08-12T08:05:27;7.22;;;3.45;;
81124;SDS011;71444;52.114;5.424;2023-08-12T08:08:07;7.75;;;3.50;;
81124;SDS011;71444;52.114;5.424;2023-08-12T08:10:47;5.78;;;3.13;;
81124;SDS011;71444;52.114;5.424;2023-08-12T08:13:26;5.80;;;3.20;;
81124;SDS011;71444;52.114;5.424;2023-08-12T08:16:06;6.60;;;3.30;;
81124;SDS011;71444;52.114;5.424;2023-08-12T08:18:46;7.18;;;3.60;;
81124;SDS011;71444;52.114;5.424;2023-08-12T08:21:25;6.55;;;3.55;;
81124;SDS011;71444;52.114;5.424;2023-08-12T08:24:05;7.25;;;3.33;;
81124;SDS011;71444;52.114;5.424;2023-08-12T08:26:49;7.03;;;3.25;;
81124;SDS011;71444;52.114;5.424;2023-08-12T08:29:28;5.47;;;2.85;;
81124;SDS011;71444;52.114;5.424;2023-08-12T08:32:08;4.80;;;2.60;;
81124;SDS011;71444;52.114;5.424;2023-08-12T08:34:48;4.95;;;2.58;;
81124;SDS011;71444;52.114;5.424;2023-08-12T08:37:28;4.80;;;2.22;;
81124;SDS011;71444;52.114;5.424;2023-08-12T08:40:10;5.65;;;2.33;;
81124;SDS011;71444;52.114;5.424;2023-08-12T08:42:51;5.30;;;2.60;;
81124;SDS011;71444;52.114;5.424;2023-08-12T08:45:32;4.65;;;2.35;;
81124;SDS011;71444;52.114;5.424;2023-08-12T08:48:13;4.07;;;2.05;;
81124;SDS011;71444;52.114;5.424;2023-08-12T08:50:53;4.55;;;2.10;;
81124;SDS011;71444;52.114;5.424;2023-08-12T08:53:37;4.10;;;1.90;;
81124;SDS011;71444;52.114;5.424;2023-08-12T08:56:18;3.88;;;1.70;;
81124;SDS011;71444;52.114;5.424;2023-08-12T08:58:58;3.17;;;1.30;;
81124;SDS011;71444;52.114;5.424;2023-08-12T09:01:38;3.65;;;1.30;;
81124;SDS011;71444;52.114;5.424;2023-08-12T09:04:21;3.63;;;1.40;;
81124;SDS011;71444;52.114;5.424;2023-08-12T09:07:02;3.60;;;1.25;;
81124;SDS011;71444;52.114;5.424;2023-08-12T09:09:46;2.83;;;1.17;;
81124;SDS011;71444;52.114;5.424;2023-08-12T09:12:31;3.40;;;1.15;;
81124;SDS011;71444;52.114;5.424;2023-08-12T09:15:11;2.72;;;0.90;;
81124;SDS011;71444;52.114;5.424;2023-08-12T09:17:54;3.67;;;1.17;;
81124;SDS011;71444;52.114;5.424;2023-08-12T09:20:34;5.38;;;2.40;;
81124;SDS011;71444;52.114;5.424;2023-08-12T09:23:13;3.60;;;1.35;;
81124;SDS011;71444;52.114;5.424;2023-08-12T09:25:53;2.83;;;1.13;;
81124;SDS011;71444;52.114;5.424;2023-08-12T09:28:35;5.25;;;1.40;;
81124;SDS011;71444;52.114;5.424;2023-08-12T09:31:22;3.58;;;1.20;;
81124;SDS011;71444;52.114;5.424;2023-08-12T09:34:05;3.67;;;1.20;;
81124;SDS011;71444;52.114;5.424;2023-08-12T09:36:46;4.93;;;1.60;;
81124;SDS011;71444;52.114;5.424;2023-08-12T09:39:26;3.38;;;1.02;;
81124;SDS011;71444;52.114;5.424;2023-08-12T09:42:09;4.68;;;1.10;;
81124;SDS011;71444;52.114;5.424;2023-08-12T09:44:49;3.88;;;1.30;;
81124;SDS011;71444;52.114;5.424;2023-08-12T09:47:29;4.40;;;1.55;;
81124;SDS011;71444;52.114;5.424;2023-08-12T09:50:09;3.72;;;1.27;;
81124;SDS011;71444;52.114;5.424;2023-08-12T09:52:52;5.53;;;1.40;;
81124;SDS011;71444;52.114;5.424;2023-08-12T09:55:34;6.43;;;1.70;;
81124;SDS011;71444;52.114;5.424;2023-08-12T09:58:17;6.50;;;1.70;;
81124;SDS011;71444;52.114;5.424;2023-08-12T10:01:00;4.00;;;1.42;;
81124;SDS011;71444;52.114;5.424;2023-08-12T10:03:48;5.50;;;1.52;;
81124;SDS011;71444;52.114;5.424;2023-08-12T10:09:09;9.20;;;1.55;;
81124;SDS011;71444;52.114;5.424;2023-08-12T10:11:51;5.47;;;1.67;;
81124;SDS011;71444;52.114;5.424;2023-08-12T10:14:33;4.35;;;1.50;;
81124;SDS011;71444;52.114;5.424;2023-08-12T10:17:22;4.50;;;1.40;;
81124;SDS011;71444;52.114;5.424;2023-08-12T10:20:03;5.13;;;1.27;;
81124;SDS011;71444;52.114;5.424;2023-08-12T10:22:46;3.85;;;1.13;;
81124;SDS011;71444;52.114;5.424;2023-08-12T10:25:30;3.60;;;1.10;;
81124;SDS011;71444;52.114;5.424;2023-08-12T10:28:12;4.05;;;1.30;;
81124;SDS011;71444;52.114;5.424;2023-08-12T10:30:52;5.13;;;1.42;;
81124;SDS011;71444;52.114;5.424;2023-08-12T10:33:36;3.92;;;1.20;;
81124;SDS011;71444;52.114;5.424;2023-08-12T10:36:20;6.07;;;1.42;;
81124;SDS011;71444;52.114;5.424;2023-08-12T10:39:00;5.40;;;1.35;;
81124;SDS011;71444;52.114;5.424;2023-08-12T10:41:49;3.28;;;1.20;;
81124;SDS011;71444;52.114;5.424;2023-08-12T10:47:29;4.72;;;1.15;;
81124;SDS011;71444;52.114;5.424;2023-08-12T10:50:01;4.15;;;1.30;;
81124;SDS011;71444;52.114;5.424;2023-08-12T10:52:41;4.78;;;1.20;;
81124;SDS011;71444;52.114;5.424;2023-08-12T10:55:24;6.72;;;1.80;;
81124;SDS011;71444;52.114;5.424;2023-08-12T10:58:08;4.13;;;1.20;;
81124;SDS011;71444;52.114;5.424;2023-08-12T11:00:51;4.85;;;1.50;;
81124;SDS011;71444;52.114;5.424;2023-08-12T11:03:41;5.50;;;1.38;;
81124;SDS011;71444;52.114;5.424;2023-08-12T11:06:26;6.07;;;1.52;;
81124;SDS011;71444;52.114;5.424;2023-08-12T11:09:09;6.00;;;1.73;;
81124;SDS011;71444;52.114;5.424;2023-08-12T11:11:56;5.60;;;2.05;;
81124;SDS011;71444;52.114;5.424;2023-08-12T11:15:15;4.43;;;1.40;;
81124;SDS011;71444;52.114;5.424;2023-08-12T11:17:49;5.25;;;1.55;;
81124;SDS011;71444;52.114;5.424;2023-08-12T11:20:30;4.50;;;1.30;;
81124;SDS011;71444;52.114;5.424;2023-08-12T11:23:11;5.07;;;1.40;;
81124;SDS011;71444;52.114;5.424;2023-08-12T11:25:50;5.03;;;1.58;;
81124;SDS011;71444;52.114;5.424;2023-08-12T11:28:32;6.28;;;1.50;;
81124;SDS011;71444;52.114;5.424;2023-08-12T11:31:11;4.95;;;1.50;;
81124;SDS011;71444;52.114;5.424;2023-08-12T11:33:51;5.88;;;1.77;;
81124;SDS011;71444;52.114;5.424;2023-08-12T11:36:32;5.95;;;1.30;;
81124;SDS011;71444;52.114;5.424;2023-08-12T11:39:11;4.95;;;1.20;;
81124;SDS011;71444;52.114;5.424;2023-08-12T11:41:56;7.22;;;1.30;;
81124;SDS011;71444;52.114;5.424;2023-08-12T11:44:36;6.10;;;1.33;;
81124;SDS011;71444;52.114;5.424;2023-08-12T11:47:20;6.55;;;1.60;;
81124;SDS011;71444;52.114;5.424;2023-08-12T11:50:03;3.92;;;1.30;;
81124;SDS011;71444;52.114;5.424;2023-08-12T11:52:46;5.53;;;1.50;;
81124;SDS011;71444;52.114;5.424;2023-08-12T11:58:08;4.82;;;1.60;;
81124;SDS011;71444;52.114;5.424;2023-08-12T12:00:58;4.22;;;1.48;;
81124;SDS011;71444;52.114;5.424;2023-08-12T12:03:38;4.78;;;1.35;;
81124;SDS011;71444;52.114;5.424;2023-08-12T12:06:27;5.68;;;1.40;;
81124;SDS011;71444;52.114;5.424;2023-08-12T12:09:15;8.32;;;1.85;;
81124;SDS011;71444;52.114;5.424;2023-08-12T12:11:56;4.97;;;1.40;;
81124;SDS011;71444;52.114;5.424;2023-08-12T12:14:43;6.30;;;1.38;;
81124;SDS011;71444;52.114;5.424;2023-08-12T12:17:25;4.80;;;1.20;;
81124;SDS011;71444;52.114;5.424;2023-08-12T12:20:06;6.80;;;1.70;;
81124;SDS011;71444;52.114;5.424;2023-08-12T12:22:50;4.63;;;1.23;;
81124;SDS011;71444;52.114;5.424;2023-08-12T12:25:29;5.15;;;1.35;;
81124;SDS011;71444;52.114;5.424;2023-08-12T12:28:09;4.72;;;1.20;;
81124;SDS011;71444;52.114;5.424;2023-08-12T12:30:48;4.70;;;1.35;;
81124;SDS011;71444;52.114;5.424;2023-08-12T12:33:28;5.85;;;1.20;;
81124;SDS011;71444;52.114;5.424;2023-08-12T12:36:08;5.57;;;1.40;;
81124;SDS011;71444;52.114;5.424;2023-08-12T12:38:48;6.13;;;1.35;;
81124;SDS011;71444;52.114;5.424;2023-08-12T12:41:37;2.78;;;1.00;;
81124;SDS011;71444;52.114;5.424;2023-08-12T12:44:17;6.05;;;1.30;;
81124;SDS011;71444;52.114;5.424;2023-08-12T12:46:56;5.32;;;1.50;;
81124;SDS011;71444;52.114;5.424;2023-08-12T12:49:37;5.03;;;1.50;;
81124;SDS011;71444;52.114;5.424;2023-08-12T12:52:20;5.70;;;1.08;;
81124;SDS011;71444;52.114;5.424;2023-08-12T12:54:59;6.47;;;1.30;;
81124;SDS011;71444;52.114;5.424;2023-08-12T12:57:41;4.75;;;1.38;;
81124;SDS011;71444;52.114;5.424;2023-08-12T13:00:32;4.35;;;1.15;;
81124;SDS011;71444;52.114;5.424;2023-08-12T13:03:13;4.75;;;1.38;;
81124;SDS011;71444;52.114;5.424;2023-08-12T13:05:53;6.75;;;1.75;;
81124;SDS011;71444;52.114;5.424;2023-08-12T13:08:33;5.05;;;1.25;;
81124;SDS011;71444;52.114;5.424;2023-08-12T13:11:12;5.57;;;1.42;;
81124;SDS011;71444;52.114;5.424;2023-08-12T13:13:52;5.50;;;1.38;;
81124;SDS011;71444;52.114;5.424;2023-08-12T13:16:32;5.65;;;1.45;;
81124;SDS011;71444;52.114;5.424;2023-08-12T13:19:12;6.20;;;1.77;;
81124;SDS011;71444;52.114;5.424;2023-08-12T13:21:52;9.02;;;1.70;;
81124;SDS011;71444;52.114;5.424;2023-08-12T13:24:32;5.68;;;1.35;;
81124;SDS011;71444;52.114;5.424;2023-08-12T13:27:12;8.65;;;1.50;;
81124;SDS011;71444;52.114;5.424;2023-08-12T13:29:52;5.97;;;1.33;;
81124;SDS011;71444;52.114;5.424;2023-08-12T13:32:32;6.80;;;1.77;;
81124;SDS011;71444;52.114;5.424;2023-08-12T13:35:12;6.75;;;1.48;;
81124;SDS011;71444;52.114;5.424;2023-08-12T13:37:56;6.82;;;1.30;;
81124;SDS011;71444;52.114;5.424;2023-08-12T13:40:36;4.80;;;1.30;;
81124;SDS011;71444;52.114;5.424;2023-08-12T13:43:16;7.32;;;1.52;;
81124;SDS011;71444;52.114;5.424;2023-08-12T13:45:56;7.32;;;1.83;;
81124;SDS011;71444;52.114;5.424;2023-08-12T13:48:45;5.90;;;1.42;;
81124;SDS011;71444;52.114;5.424;2023-08-12T13:51:25;7.18;;;1.58;;
81124;SDS011;71444;52.114;5.424;2023-08-12T13:54:05;5.30;;;1.55;;
81124;SDS011;71444;52.114;5.424;2023-08-12T13:56:51;7.13;;;1.40;;
81124;SDS011;71444;52.114;5.424;2023-08-12T13:59:31;5.65;;;1.50;;
81124;SDS011;71444;52.114;5.424;2023-08-12T14:02:10;6.60;;;1.38;;
81124;SDS011;71444;52.114;5.424;2023-08-12T14:04:50;7.40;;;1.67;;
81124;SDS011;71444;52.114;5.424;2023-08-12T14:07:39;6.22;;;1.23;;
81124;SDS011;71444;52.114;5.424;2023-08-12T14:10:27;5.90;;;1.50;;
81124;SDS011;71444;52.114;5.424;2023-08-12T14:13:11;7.07;;;1.60;;
81124;SDS011;71444;52.114;5.424;2023-08-12T14:15:51;5.82;;;1.30;;
81124;SDS011;71444;52.114;5.424;2023-08-12T14:18:32;6.97;;;1.75;;
81124;SDS011;71444;52.114;5.424;2023-08-12T14:21:17;7.22;;;1.60;;
81124;SDS011;71444;52.114;5.424;2023-08-12T14:23:57;6.22;;;1.30;;
81124;SDS011;71444;52.114;5.424;2023-08-12T14:26:37;8.15;;;1.70;;
81124;SDS011;71444;52.114;5.424;2023-08-12T14:29:17;7.93;;;1.38;;
81124;SDS011;71444;52.114;5.424;2023-08-12T14:31:56;6.53;;;1.40;;
81124;SDS011;71444;52.114;5.424;2023-08-12T14:34:40;5.93;;;1.30;;
81124;SDS011;71444;52.114;5.424;2023-08-12T14:37:23;6.50;;;1.40;;
81124;SDS011;71444;52.114;5.424;2023-08-12T14:40:02;7.40;;;1.80;;
81124;SDS011;71444;52.114;5.424;2023-08-12T14:42:43;8.35;;;1.60;;
81124;SDS011;71444;52.114;5.424;2023-08-12T14:45:23;6.63;;;1.50;;
81124;SDS011;71444;52.114;5.424;2023-08-12T14:48:02;6.53;;;1.42;;
81124;SDS011;71444;52.114;5.424;2023-08-12T14:50:42;9.00;;;1.55;;
81124;SDS011;71444;52.114;5.424;2023-08-12T14:53:24;7.22;;;1.77;;
81124;SDS011;71444;52.114;5.424;2023-08-12T14:56:04;9.85;;;1.40;;
81124;SDS011;71444;52.114;5.424;2023-08-12T14:58:44;7.20;;;2.10;;
81124;SDS011;71444;52.114;5.424;2023-08-12T15:01:33;9.75;;;1.80;;
81124;SDS011;71444;52.114;5.424;2023-08-12T15:04:13;5.55;;;1.50;;
81124;SDS011;71444;52.114;5.424;2023-08-12T15:06:54;8.45;;;2.17;;
81124;SDS011;71444;52.114;5.424;2023-08-12T15:09:34;6.30;;;1.70;;
81124;SDS011;71444;52.114;5.424;2023-08-12T15:12:14;7.93;;;1.98;;
81124;SDS011;71444;52.114;5.424;2023-08-12T15:14:53;8.93;;;1.80;;
81124;SDS011;71444;52.114;5.424;2023-08-12T15:17:33;6.03;;;1.50;;
81124;SDS011;71444;52.114;5.424;2023-08-12T15:20:13;7.15;;;1.58;;
81124;SDS011;71444;52.114;5.424;2023-08-12T15:22:53;8.32;;;1.65;;
81124;SDS011;71444;52.114;5.424;2023-08-12T15:25:33;9.35;;;1.70;;
81124;SDS011;71444;52.114;5.424;2023-08-12T15:28:12;9.52;;;2.65;;
81124;SDS011;71444;52.114;5.424;2023-08-12T15:30:52;5.85;;;1.35;;
81124;SDS011;71444;52.114;5.424;2023-08-12T15:33:32;7.10;;;1.63;;
81124;SDS011;71444;52.114;5.424;2023-08-12T15:36:12;8.05;;;1.80;;
81124;SDS011;71444;52.114;5.424;2023-08-12T15:38:52;8.63;;;2.33;;
81124;SDS011;71444;52.114;5.424;2023-08-12T15:41:31;8.18;;;1.65;;
81124;SDS011;71444;52.114;5.424;2023-08-12T15:44:11;6.13;;;1.70;;
81124;SDS011;71444;52.114;5.424;2023-08-12T15:46:52;7.50;;;2.17;;
81124;SDS011;71444;52.114;5.424;2023-08-12T15:49:32;7.82;;;1.60;;
81124;SDS011;71444;52.114;5.424;2023-08-12T15:52:12;6.25;;;2.00;;
81124;SDS011;71444;52.114;5.424;2023-08-12T15:54:52;6.63;;;1.60;;
81124;SDS011;71444;52.114;5.424;2023-08-12T15:57:33;6.97;;;1.70;;
81124;SDS011;71444;52.114;5.424;2023-08-12T16:00:13;4.95;;;1.55;;
81124;SDS011;71444;52.114;5.424;2023-08-12T16:02:53;7.05;;;1.73;;
81124;SDS011;71444;52.114;5.424;2023-08-12T16:05:33;7.32;;;1.45;;
81124;SDS011;71444;52.114;5.424;2023-08-12T16:08:12;9.18;;;1.95;;
81124;SDS011;71444;52.114;5.424;2023-08-12T16:10:52;7.15;;;1.70;;
81124;SDS011;71444;52.114;5.424;2023-08-12T16:13:32;9.65;;;1.60;;
81124;SDS011;71444;52.114;5.424;2023-08-12T16:16:12;8.00;;;1.90;;
81124;SDS011;71444;52.114;5.424;2023-08-12T16:18:52;9.35;;;1.92;;